Skip Navigation Links
NOAA logo - Click to go to the NOAA homepage
NOAA's National Weather Service
Alaska Aviation Weather Unit
  NWS logo - Click to go to the NWS homepage
Left Navbar Graphic     02 AKDT = 10 GMT

   
NOAA is celebrating 200 years of science, service, and stewardship. Visit the NOAA 200th celebration Web site to learn more.
USA.gov is the U.S. Government's official Web portal to all Federal, state and local government Web resources and services.
Facebook
NWS on Facebook

AAWU Home :: Display TAF Add Bookmark
METAR PASL 270416Z AUTO 03006KT 350V050 10SM CLR M03/M16 A2974 RMK
     AO1=

METAR PASL 270436Z AUTO 00000KT 10SM CLR M04/M16 A2975 RMK AO1=

METAR PASL 270516Z AUTO 35003KT 10SM CLR M05/M17 A2974 RMK AO1=

METAR PASL 270536Z AUTO 00000KT 10SM CLR M06/M17 A2974 RMK AO1=

METAR PASL 270616Z AUTO 00000KT 10SM CLR M06/M17 A2974 RMK AO1=

METAR PASL 270636Z AUTO 00000KT 10SM CLR M06/M17 A2974 RMK AO1=

METAR PASL 270656Z AUTO 36004KT 10SM CLR M06/M17 A2973 RMK AO1=

METAR PASL 270716Z AUTO 00000KT 10SM CLR M07/M17 A2974 RMK AO1=

METAR PASL 270756Z AUTO 00000KT 10SM CLR M07/M17 A2973 RMK AO1=

METAR PASL 270816Z AUTO 00000KT 10SM CLR M08/M17 A2973 RMK AO1=

METAR PASL 270916Z AUTO 00000KT 10SM CLR M10/M18 A2973 RMK AO1=

METAR PASL 270936Z AUTO 00000KT 10SM CLR M09/M18 A2972 RMK AO1=

METAR PASL 270956Z AUTO 00000KT 10SM CLR M10/M18 A2972 RMK AO1=

METAR PASL 271036Z AUTO 00000KT 10SM CLR M09/M18 A2972 RMK AO1=


NOAA's National Weather Service
Alaska Aviation Weather Unit
6930 Sand Lake Road
Anchorage, AK 99502-1845
Disclaimer
Credits
Glossary
Privacy Policy
About Us
Career Opportunities
Contact AAWU Internet Services Site last modified: April, 17th 2012